CFG209 MDPC-EDDF
Flight info
| Callsign | CFG209 |
|---|---|
| Flight time | N/A |
| Altitude | 37000 |
| Route | CHUMA2W CHUMA Y315 KEEKA/M081F370 DCT SIFEN DCT 34N050W 39N040W 4230N03000W/M081F390 45N020W DCT SEPAL UN470 LAPEX/N0461F390 DCT OZNOH/N0458F400 UN29 BULOX DCT TABOV UN858 OQQAL DCT RANUX/N0458F410 DCT VALEK DCT LUTAX UM163 DIK T856 NIVNU T847 IMCOM IMCOM1D |
| Aircraft | A339/H-SDE1E2E3GHIJ1J4J7LM1OP2RVWXYZ/LB1D1 |
Departure
| Time | 2026-04-30 22:10 |
|---|---|
| Airport | Punta Cana International Airport (MDPC) |
Arrival
| Time | N/A |
|---|---|
| Airport | Frankfurt Main Airport (EDDF) |
| Time | Latitude | Longitude | Altitude | Speed | Heading |
|---|---|---|---|---|---|
| 2026-04-30 21:42 | 18.56374 | -68.36594 | 51 ft | 0 kts | 175° |
| 2026-04-30 21:57 | 18.56388 | -68.36595 | 51 ft | 2 kts | 175° |
| 2026-04-30 21:57 | 18.56403 | -68.36597 | 51 ft | 2 kts | 175° |
| 2026-04-30 21:57 | 18.56418 | -68.36597 | 51 ft | 2 kts | 194° |
| 2026-04-30 21:57 | 18.56432 | -68.36591 | 51 ft | 2 kts | 213° |
| 2026-04-30 21:58 | 18.56444 | -68.36581 | 51 ft | 2 kts | 232° |
| 2026-04-30 21:58 | 18.56452 | -68.36567 | 50 ft | 2 kts | 251° |
| 2026-04-30 21:58 | 18.56454 | -68.36551 | 50 ft | 2 kts | 268° |
| 2026-04-30 21:58 | 18.56455 | -68.36536 | 50 ft | 2 kts | 266° |
| 2026-04-30 21:59 | 18.56457 | -68.36520 | 50 ft | 1 kts | 264° |
| 2026-04-30 21:59 | 18.56457 | -68.36517 | 50 ft | 0 kts | 264° |
| 2026-04-30 22:03 | 18.56456 | -68.36526 | 50 ft | 3 kts | 264° |
| 2026-04-30 22:03 | 18.56458 | -68.36568 | 50 ft | 7 kts | 289° |
| 2026-04-30 22:03 | 18.56493 | -68.36625 | 51 ft | 9 kts | 309° |
| 2026-04-30 22:03 | 18.56527 | -68.36687 | 52 ft | 9 kts | 282° |
| 2026-04-30 22:04 | 18.56529 | -68.36737 | 52 ft | 10 kts | 265° |
| 2026-04-30 22:04 | 18.56519 | -68.36855 | 53 ft | 12 kts | 265° |
| 2026-04-30 22:04 | 18.56504 | -68.37039 | 56 ft | 12 kts | 265° |
| 2026-04-30 22:05 | 18.56496 | -68.37130 | 56 ft | 12 kts | 265° |
| 2026-04-30 22:05 | 18.56488 | -68.37215 | 57 ft | 12 kts | 265° |
| 2026-04-30 22:05 | 18.56480 | -68.37303 | 58 ft | 14 kts | 265° |
| 2026-04-30 22:05 | 18.56471 | -68.37412 | 59 ft | 15 kts | 265° |
| 2026-04-30 22:06 | 18.56461 | -68.37533 | 59 ft | 17 kts | 264° |
| 2026-04-30 22:06 | 18.56447 | -68.37750 | 59 ft | 8 kts | 288° |
| 2026-04-30 22:06 | 18.56485 | -68.37781 | 59 ft | 8 kts | 347° |
| 2026-04-30 22:07 | 18.56554 | -68.37787 | 59 ft | 11 kts | 356° |
| 2026-04-30 22:07 | 18.56633 | -68.37790 | 59 ft | 9 kts | 351° |
| 2026-04-30 22:07 | 18.56694 | -68.37836 | 59 ft | 12 kts | 304° |
| 2026-04-30 22:07 | 18.56736 | -68.37926 | 58 ft | 15 kts | 294° |
| 2026-04-30 22:08 | 18.56785 | -68.38038 | 58 ft | 17 kts | 294° |
| 2026-04-30 22:08 | 18.56837 | -68.38160 | 58 ft | 18 kts | 294° |
| 2026-04-30 22:08 | 18.56879 | -68.38238 | 58 ft | 11 kts | 317° |
| 2026-04-30 22:08 | 18.56954 | -68.38271 | 58 ft | 12 kts | 345° |
| 2026-04-30 22:09 | 18.57012 | -68.38284 | 57 ft | 6 kts | 6° |
| 2026-04-30 22:09 | 18.57045 | -68.38254 | 57 ft | 6 kts | 68° |
| 2026-04-30 22:09 | 18.57054 | -68.38221 | 57 ft | 7 kts | 73° |
| 2026-04-30 22:09 | 18.57119 | -68.37984 | 57 ft | 64 kts | 74° |
| 2026-04-30 22:10 | 18.57300 | -68.37324 | 55 ft | 119 kts | 74° |
| 2026-04-30 22:10 | 18.57577 | -68.36323 | 48 ft | 165 kts | 74° |
| 2026-04-30 22:10 | 18.57925 | -68.35059 | 271 ft | 185 kts | 74° |
| 2026-04-30 22:10 | 18.58278 | -68.33775 | 832 ft | 185 kts | 74° |
| 2026-04-30 22:11 | 18.59333 | -68.31409 | 1986 ft | 185 kts | 41° |
| 2026-04-30 22:11 | 18.60493 | -68.30776 | 2523 ft | 189 kts | 14° |
| 2026-04-30 22:11 | 18.61812 | -68.30782 | 3037 ft | 192 kts | 355° |
| 2026-04-30 22:12 | 18.63168 | -68.30981 | 3357 ft | 205 kts | 355° |
| 2026-04-30 22:12 | 18.64658 | -68.31194 | 3622 ft | 221 kts | 355° |
| 2026-04-30 22:12 | 18.66237 | -68.31413 | 3926 ft | 237 kts | 355° |
| 2026-04-30 22:12 | 18.67056 | -68.31527 | 4079 ft | 245 kts | 354° |
| 2026-04-30 22:13 | 18.69029 | -68.31782 | 4419 ft | 264 kts | 359° |
| 2026-04-30 22:13 | 18.70824 | -68.31401 | 4847 ft | 269 kts | 30° |
| 2026-04-30 22:14 | 18.72319 | -68.30241 | 5481 ft | 269 kts | 42° |
| 2026-04-30 22:14 | 18.73773 | -68.28918 | 6090 ft | 273 kts | 42° |
| 2026-04-30 22:15 | 18.75923 | -68.26957 | 6937 ft | 278 kts | 42° |
| 2026-04-30 22:15 | 18.77396 | -68.25613 | 7497 ft | 282 kts | 42° |
| 2026-04-30 22:15 | 18.78898 | -68.24242 | 8035 ft | 286 kts | 41° |
| 2026-04-30 22:15 | 18.80414 | -68.22855 | 8567 ft | 290 kts | 41° |
| 2026-04-30 22:16 | 18.81944 | -68.21458 | 9081 ft | 294 kts | 40° |
| 2026-04-30 22:16 | 18.83513 | -68.20026 | 9603 ft | 298 kts | 40° |
| 2026-04-30 22:17 | 18.88400 | -68.15571 | 10731 ft | 326 kts | 40° |
| 2026-04-30 22:17 | 18.90188 | -68.13939 | 10978 ft | 340 kts | 40° |
| 2026-04-30 22:17 | 18.93899 | -68.10548 | 11612 ft | 362 kts | 40° |
| 2026-04-30 22:18 | 18.95805 | -68.08807 | 12172 ft | 364 kts | 39° |
| 2026-04-30 22:18 | 18.99666 | -68.05275 | 13316 ft | 369 kts | 39° |
| 2026-04-30 22:19 | 19.03582 | -68.01688 | 14352 ft | 376 kts | 39° |
| 2026-04-30 22:19 | 19.05570 | -67.99867 | 14826 ft | 380 kts | 39° |
| 2026-04-30 22:19 | 19.09582 | -67.96191 | 15793 ft | 387 kts | 39° |
| 2026-04-30 22:20 | 19.11649 | -67.94294 | 16264 ft | 391 kts | 38° |
| 2026-04-30 22:20 | 19.15790 | -67.90495 | 17168 ft | 399 kts | 38° |
| 2026-04-30 22:20 | 19.17903 | -67.88556 | 17612 ft | 403 kts | 38° |
| 2026-04-30 22:21 | 19.20029 | -67.86607 | 18064 ft | 407 kts | 38° |
| 2026-04-30 22:21 | 19.22178 | -67.84634 | 18484 ft | 412 kts | 38° |
| 2026-04-30 22:21 | 19.24348 | -67.82640 | 18901 ft | 416 kts | 38° |
| 2026-04-30 22:21 | 19.26562 | -67.80607 | 19311 ft | 421 kts | 39° |
| 2026-04-30 22:22 | 19.28769 | -67.78576 | 19703 ft | 426 kts | 38° |
| 2026-04-30 22:22 | 19.31025 | -67.76501 | 20103 ft | 430 kts | 38° |
| 2026-04-30 22:22 | 19.33285 | -67.74421 | 20492 ft | 434 kts | 39° |
| 2026-04-30 22:22 | 19.35577 | -67.72311 | 20861 ft | 438 kts | 39° |
| 2026-04-30 22:23 | 19.37885 | -67.70184 | 21221 ft | 443 kts | 39° |
| 2026-04-30 22:23 | 19.40221 | -67.68032 | 21574 ft | 447 kts | 39° |
| 2026-04-30 22:23 | 19.42580 | -67.65859 | 21942 ft | 451 kts | 39° |
| 2026-04-30 22:23 | 19.44963 | -67.63660 | 22296 ft | 455 kts | 39° |
| 2026-04-30 22:24 | 19.47345 | -67.61462 | 22653 ft | 458 kts | 39° |
| 2026-04-30 22:24 | 19.49801 | -67.59193 | 23037 ft | 461 kts | 39° |
| 2026-04-30 22:24 | 19.52292 | -67.56892 | 23446 ft | 463 kts | 39° |
| 2026-04-30 22:24 | 19.54699 | -67.54665 | 23865 ft | 464 kts | 38° |
| 2026-04-30 22:25 | 19.57167 | -67.52384 | 24269 ft | 466 kts | 38° |
| 2026-04-30 22:25 | 19.59597 | -67.50139 | 24655 ft | 468 kts | 38° |
| 2026-04-30 22:25 | 19.62089 | -67.47833 | 25037 ft | 470 kts | 38° |
| 2026-04-30 22:25 | 19.64549 | -67.45558 | 25408 ft | 471 kts | 38° |
| 2026-04-30 22:26 | 19.69495 | -67.40979 | 26129 ft | 475 kts | 38° |
| 2026-04-30 22:26 | 19.72003 | -67.38657 | 26489 ft | 477 kts | 38° |
| 2026-04-30 22:26 | 19.74497 | -67.36346 | 26821 ft | 479 kts | 38° |
| 2026-04-30 22:27 | 19.77010 | -67.34016 | 27148 ft | 481 kts | 38° |
| 2026-04-30 22:27 | 19.79569 | -67.31642 | 27483 ft | 482 kts | 38° |
| 2026-04-30 22:27 | 19.84648 | -67.26926 | 28152 ft | 485 kts | 38° |
| 2026-04-30 22:28 | 19.89753 | -67.22184 | 28781 ft | 487 kts | 38° |
| 2026-04-30 22:28 | 19.92311 | -67.19804 | 29074 ft | 489 kts | 38° |
| 2026-04-30 22:29 | 20.00050 | -67.12604 | 29795 ft | 497 kts | 38° |
| 2026-04-30 22:29 | 20.02665 | -67.10168 | 30007 ft | 500 kts | 38° |
| 2026-04-30 22:30 | 20.13267 | -67.00279 | 30856 ft | 512 kts | 38° |
| 2026-04-30 22:31 | 20.21349 | -66.92725 | 31655 ft | 515 kts | 37° |
| 2026-04-30 22:32 | 20.29407 | -66.85185 | 32448 ft | 517 kts | 37° |
| 2026-04-30 22:32 | 20.34835 | -66.80102 | 32978 ft | 519 kts | 37° |
| 2026-04-30 22:33 | 20.42943 | -66.72501 | 34079 ft | 515 kts | 37° |
| 2026-04-30 22:33 | 20.48282 | -66.67487 | 34809 ft | 512 kts | 37° |
| 2026-04-30 22:34 | 20.56263 | -66.59984 | 35750 ft | 509 kts | 37° |
| 2026-04-30 22:35 | 20.61578 | -66.54984 | 36167 ft | 511 kts | 37° |
| 2026-04-30 22:36 | 20.72267 | -66.44908 | 36945 ft | 513 kts | 37° |
| 2026-04-30 22:36 | 20.74931 | -66.42396 | 36948 ft | 514 kts | 37° |
| 2026-04-30 22:37 | 20.85648 | -66.32268 | 36947 ft | 513 kts | 37° |
| 2026-04-30 22:38 | 20.96354 | -66.22131 | 36950 ft | 515 kts | 37° |
| 2026-04-30 22:39 | 21.04395 | -66.14502 | 36951 ft | 514 kts | 37° |
| 2026-04-30 22:40 | 21.20420 | -65.99272 | 36955 ft | 513 kts | 37° |
| 2026-04-30 22:41 | 21.33724 | -65.86590 | 36959 ft | 513 kts | 37° |
| 2026-04-30 22:43 | 21.49724 | -65.71291 | 36980 ft | 512 kts | 37° |
| 2026-04-30 22:44 | 21.60343 | -65.61114 | 36977 ft | 511 kts | 37° |
| 2026-04-30 22:45 | 21.76225 | -65.45854 | 36977 ft | 511 kts | 37° |
| 2026-04-30 22:47 | 21.92129 | -65.30521 | 36974 ft | 511 kts | 37° |
| 2026-04-30 22:48 | 22.02708 | -65.20291 | 36974 ft | 511 kts | 37° |
| 2026-04-30 22:49 | 22.18452 | -65.04871 | 36973 ft | 510 kts | 38° |
| 2026-04-30 22:51 | 22.34163 | -64.89237 | 36972 ft | 510 kts | 38° |
| 2026-04-30 22:52 | 22.41972 | -64.81448 | 36972 ft | 509 kts | 38° |
| 2026-04-30 22:53 | 22.52360 | -64.71072 | 36975 ft | 509 kts | 38° |
| 2026-04-30 22:53 | 22.60143 | -64.63283 | 36976 ft | 508 kts | 38° |
| 2026-04-30 22:55 | 22.73098 | -64.50284 | 36987 ft | 507 kts | 38° |
| 2026-04-30 22:56 | 22.83463 | -64.39867 | 36991 ft | 508 kts | 38° |
| 2026-04-30 22:57 | 22.96405 | -64.26820 | 36992 ft | 508 kts | 38° |
| 2026-04-30 22:58 | 23.06749 | -64.16370 | 36995 ft | 507 kts | 38° |
| 2026-04-30 22:59 | 23.22126 | -64.00789 | 36993 ft | 505 kts | 39° |